Pays
Station

 

Conditions  météo  pour  Fort Myers, Page Field  -  Etats-Unis    Etats-Unis

  
18 °C
    
 
 

METAR pour Fort Myers, Page Field :

KFMY 212153Z 06006KT 10SM CLR 18/M01 A3026 RMK AO2 SLP248 T01831006 $

 

Voici le bulletin pour Fort Myers, Page Field - Etats-Unis.
 
Le bulletin a été fait il y a 6 minutes, à 21:53 UTC .
Le vent soufflait à la vitesse de 3.1 mètres par seconde de Est/Nord-est (060°).
 
La température était de 18 °C, avec un point de rosée à -1 °C.
La pression atmosphérique était de 1025 hPa.
L'humidité relative était de 27.5%.
 
Le ciel était clair.
 
La visibilité globale était de 16.1 kilomètres.
 

 
 
 

Pays :   A   B   C   D   E   F   G   H   I   J   K   L   M   N   O   P   Q   R   S   T   U   V   W   Y   Z

 

Partenaires :  Info Météo avec Met'info
Météo Marine avec MeteoMarine.net
Infos Site  |  Infos Légales  |  Crédits  |  Confidentialité
Contactez-nous  |  Ajouter aux favoris
© 2013-2019 METAR - Tous droits réservés